Terminal Aerodrome Forecast
Issued by NWS

Current Version | Previous Version | Text Only | Print | Product List | Glossary On
Versions: 1 2 3 4 5 6 7 8 9 10 11 12 13 14 15
000
FTUS42 TJSJ 170532
TAFNCM
TAF
TNCM 170532Z 1706/1806 13005KT P6SM FEW016 SCT035
     FM171200 13012KT P6SM SHRA VCTS FEW010CB SCT040
     FM172100 11010KT P6SM VCSH FEW020
      AMD NOT SKED TIL 171100=

USA.gov is the U.S. government's official web portal to all federal, state and local government web resources and services.